createdAt,value
2023-02-22T00:00:59.891Z,67.50
2023-02-22T00:03:32.343Z,67.60
2023-02-22T00:06:02.602Z,67.60
2023-02-22T00:08:32.808Z,67.50
2023-02-22T00:11:02.861Z,67.20
2023-02-22T00:13:31.607Z,67.30
2023-02-22T00:16:01.061Z,67.50
2023-02-22T00:18:31.008Z,67.60
2023-02-22T00:21:01.051Z,67.60
2023-02-22T00:23:32.537Z,67.50
2023-02-22T00:26:01.765Z,67.30
2023-02-22T00:28:30.771Z,67.30
2023-02-22T00:30:59.940Z,67.20
2023-02-22T00:33:28.293Z,67.10
2023-02-22T00:35:57.874Z,67.00
2023-02-22T00:38:26.105Z,67.00
2023-02-22T00:40:55.592Z,67.00
2023-02-22T00:43:25.090Z,67.10
2023-02-22T00:45:54.111Z,67.10
2023-02-22T00:48:22.435Z,67.10
2023-02-22T00:50:53.758Z,67.00
2023-02-22T00:53:23.558Z,67.00
2023-02-22T00:55:51.983Z,66.90
2023-02-22T00:58:20.245Z,67.00
2023-02-22T01:00:48.962Z,67.00
2023-02-22T01:03:19.090Z,67.00
2023-02-22T01:05:47.933Z,66.70
2023-02-22T01:08:18.066Z,66.90
2023-02-22T01:10:47.742Z,67.00
2023-02-22T01:13:15.934Z,66.90
2023-02-22T01:15:45.310Z,66.80
2023-02-22T01:18:17.368Z,66.70
2023-02-22T01:20:48.131Z,66.40
2023-02-22T01:23:17.487Z,66.70
2023-02-22T01:25:47.127Z,67.00
2023-02-22T01:28:15.487Z,66.80
2023-02-22T01:30:43.764Z,66.90
2023-02-22T01:33:13.112Z,67.00
2023-02-22T01:35:43.303Z,67.10
2023-02-22T01:38:11.803Z,67.10
2023-02-22T01:40:42.345Z,67.00
2023-02-22T01:43:21.218Z,67.30
2023-02-22T01:45:58.364Z,67.60
2023-02-22T01:48:33.759Z,67.70
2023-02-22T01:51:10.671Z,67.80
2023-02-22T01:53:42.679Z,67.80
2023-02-22T01:56:11.241Z,67.90
2023-02-22T01:58:44.328Z,67.90
2023-02-22T02:01:12.893Z,67.80
2023-02-22T02:03:42.463Z,68.00
2023-02-22T02:06:15.333Z,67.80
2023-02-22T02:08:51.688Z,67.70
2023-02-22T02:11:22.649Z,67.60
2023-02-22T02:13:55.066Z,67.60
2023-02-22T02:16:24.191Z,67.50
2023-02-22T02:18:52.608Z,67.50
2023-02-22T02:21:43.915Z,67.80
2023-02-22T02:24:52.285Z,68.10
2023-02-22T02:27:23.137Z,68.30
2023-02-22T02:30:33.031Z,68.30
2023-02-22T02:33:08.621Z,68.40
2023-02-22T02:35:49.007Z,68.60
2023-02-22T02:38:26.569Z,68.90
2023-02-22T02:41:06.132Z,69.00
2023-02-22T02:43:40.938Z,69.10
2023-02-22T02:46:15.419Z,69.00
2023-02-22T02:48:49.679Z,69.00
2023-02-22T02:51:19.319Z,69.00
2023-02-22T02:53:51.342Z,68.90
2023-02-22T02:56:19.682Z,68.80
2023-02-22T02:58:50.208Z,68.90
2023-02-22T03:01:33.460Z,68.90
2023-02-22T03:04:21.934Z,68.90
2023-02-22T03:07:28.674Z,68.80
2023-02-22T03:10:13.246Z,68.80
2023-02-22T03:12:50.032Z,68.90
2023-02-22T03:15:36.352Z,68.80
2023-02-22T03:18:07.808Z,68.60
2023-02-22T03:20:46.415Z,68.50
2023-02-22T03:23:24.787Z,68.40
2023-02-22T03:25:57.036Z,68.60
2023-02-22T03:28:28.913Z,68.80
2023-02-22T03:31:02.174Z,69.10
2023-02-22T03:33:36.401Z,69.40
2023-02-22T03:36:13.115Z,69.50
2023-02-22T03:38:44.080Z,69.60
2023-02-22T03:41:16.385Z,69.70
2023-02-22T03:43:49.074Z,69.70
2023-02-22T03:46:20.358Z,69.70
2023-02-22T03:48:54.265Z,69.70
2023-02-22T03:51:24.920Z,69.80
2023-02-22T03:53:53.754Z,69.80
2023-02-22T03:56:26.563Z,69.80
2023-02-22T03:58:55.407Z,69.80
2023-02-22T04:01:24.384Z,69.80
2023-02-22T04:03:52.532Z,69.80
2023-02-22T04:06:20.769Z,69.80
2023-02-22T04:08:50.315Z,69.70
2023-02-22T04:11:18.754Z,69.90
2023-02-22T04:13:46.931Z,70.00
2023-02-22T04:16:15.381Z,70.10
2023-02-22T04:18:43.632Z,70.10
2023-02-22T04:21:11.860Z,70.70
2023-02-22T04:23:40.042Z,70.00
2023-02-22T04:26:09.572Z,69.90
2023-02-22T04:28:37.698Z,69.80
2023-02-22T04:31:06.044Z,69.90
2023-02-22T04:33:34.196Z,69.80
2023-02-22T04:36:02.516Z,69.70
2023-02-22T04:38:30.709Z,69.60
2023-02-22T04:40:58.844Z,69.60
2023-02-22T04:43:28.462Z,69.70
2023-02-22T04:45:56.597Z,69.80
2023-02-22T04:48:24.755Z,69.90
2023-02-22T04:50:52.901Z,70.00
2023-02-22T04:53:21.066Z,70.10
2023-02-22T04:55:49.323Z,70.10
2023-02-22T04:58:17.501Z,70.10
2023-02-22T05:00:47.210Z,70.10
2023-02-22T05:03:15.503Z,70.10
2023-02-22T05:05:43.714Z,70.00
2023-02-22T05:08:11.879Z,70.00
2023-02-22T05:10:40.016Z,70.90
2023-02-22T05:13:09.312Z,70.30
2023-02-22T05:15:37.539Z,70.50
2023-02-22T05:18:07.224Z,70.50
2023-02-22T05:20:36.912Z,70.50
2023-02-22T05:23:05.603Z,70.70
2023-02-22T05:25:34.650Z,70.90
2023-02-22T05:28:05.665Z,71.00
2023-02-22T05:30:35.974Z,71.10
2023-02-22T05:33:04.184Z,71.20
2023-02-22T05:35:33.948Z,71.20
2023-02-22T05:38:03.659Z,71.20
2023-02-22T05:40:32.818Z,71.20
2023-02-22T05:43:02.214Z,71.10
2023-02-22T05:45:31.220Z,71.20
2023-02-22T05:47:59.556Z,71.20
2023-02-22T05:50:27.888Z,71.20
2023-02-22T05:52:57.617Z,71.20
2023-02-22T05:55:26.545Z,71.10
2023-02-22T05:57:54.995Z,71.10
2023-02-22T06:00:28.342Z,71.20
2023-02-22T06:02:57.766Z,71.40
2023-02-22T06:05:26.482Z,71.40
2023-02-22T06:07:54.727Z,71.50
2023-02-22T06:10:24.325Z,71.40
2023-02-22T06:12:53.294Z,71.50
2023-02-22T06:15:22.776Z,71.60
2023-02-22T06:17:51.359Z,71.80
2023-02-22T06:20:22.661Z,72.00
2023-02-22T06:22:51.023Z,72.30
2023-02-22T06:25:25.375Z,72.40
2023-02-22T06:27:53.663Z,72.80
2023-02-22T06:30:24.796Z,72.70
2023-02-22T06:32:53.114Z,72.50
2023-02-22T06:35:21.773Z,72.40
2023-02-22T06:37:50.004Z,72.30
2023-02-22T06:40:18.300Z,72.20
2023-02-22T06:42:49.508Z,71.80
2023-02-22T06:45:19.163Z,71.60
2023-02-22T06:47:47.555Z,71.40
2023-02-22T06:50:22.610Z,71.00
2023-02-22T06:52:50.817Z,70.80
2023-02-22T06:55:20.607Z,70.70
2023-02-22T06:57:50.228Z,70.60
2023-02-22T07:00:20.178Z,70.40
2023-02-22T07:02:49.360Z,70.40
2023-02-22T07:05:19.436Z,70.30
2023-02-22T07:07:48.275Z,70.30
2023-02-22T07:10:21.644Z,70.20
2023-02-22T07:12:52.529Z,70.30
2023-02-22T07:15:23.790Z,70.20
2023-02-22T07:17:52.064Z,70.10
2023-02-22T07:20:21.609Z,70.00
2023-02-22T07:22:50.521Z,70.00
2023-02-22T07:25:19.145Z,69.90
2023-02-22T07:27:47.469Z,69.90
2023-02-22T07:30:20.688Z,69.90
2023-02-22T07:32:49.085Z,69.90
2023-02-22T07:35:18.681Z,69.90
2023-02-22T07:37:48.170Z,69.70
2023-02-22T07:40:18.086Z,69.70
2023-02-22T07:42:53.604Z,69.90
2023-02-22T07:45:24.285Z,70.10
2023-02-22T07:47:52.585Z,70.20
2023-02-22T07:50:21.972Z,70.50
2023-02-22T07:52:51.319Z,70.60
2023-02-22T07:55:25.515Z,70.90
2023-02-22T07:57:56.167Z,71.00
2023-02-22T08:00:27.933Z,71.00
2023-02-22T08:02:56.788Z,71.20
2023-02-22T08:05:27.638Z,71.20
2023-02-22T08:07:55.946Z,71.40
2023-02-22T08:10:25.613Z,71.60
2023-02-22T08:12:54.710Z,71.70
2023-02-22T08:15:28.518Z,71.80
2023-02-22T08:17:57.000Z,71.80
2023-02-22T08:20:25.331Z,71.90
2023-02-22T08:22:53.648Z,71.90
2023-02-22T08:25:23.363Z,71.90
2023-02-22T08:27:51.513Z,72.00
2023-02-22T08:30:22.106Z,72.10
2023-02-22T08:32:52.245Z,72.10
2023-02-22T08:35:21.703Z,72.20
2023-02-22T08:37:54.583Z,72.40
2023-02-22T08:40:25.558Z,72.50
2023-02-22T08:42:53.783Z,72.60
2023-02-22T08:45:22.281Z,72.60
2023-02-22T08:47:51.961Z,72.70
2023-02-22T08:50:22.276Z,72.90
2023-02-22T08:52:51.676Z,73.10
2023-02-22T08:55:21.991Z,73.20
2023-02-22T08:57:50.754Z,73.30
2023-02-22T09:00:20.242Z,73.20
2023-02-22T09:02:48.427Z,73.40
2023-02-22T09:05:18.161Z,73.40
2023-02-22T09:07:49.365Z,73.60
2023-02-22T09:10:19.338Z,73.70
2023-02-22T09:12:47.620Z,73.80
2023-02-22T09:15:16.801Z,73.70
2023-02-22T09:17:44.964Z,73.70
2023-02-22T09:20:14.252Z,73.70
2023-02-22T09:22:46.729Z,73.70
2023-02-22T09:25:17.314Z,73.70
2023-02-22T09:27:48.013Z,73.50
2023-02-22T09:30:23.884Z,73.40
2023-02-22T09:32:54.334Z,73.10
2023-02-22T09:35:27.158Z,72.90
2023-02-22T09:37:58.734Z,72.60
2023-02-22T09:40:30.114Z,72.50
2023-02-22T09:43:09.344Z,72.30
2023-02-22T09:45:48.348Z,72.10
2023-02-22T09:48:22.019Z,72.10
2023-02-22T09:50:52.344Z,72.10
2023-02-22T09:53:29.781Z,72.10
2023-02-22T09:56:02.095Z,72.10
2023-02-22T09:58:35.349Z,72.40
2023-02-22T10:01:23.089Z,72.40
2023-02-22T10:04:00.244Z,72.40
2023-02-22T10:06:29.722Z,72.30
2023-02-22T10:09:07.828Z,72.10
2023-02-22T10:11:53.503Z,71.90
2023-02-22T10:14:43.848Z,72.00
2023-02-22T10:17:22.445Z,71.90
2023-02-22T10:20:13.433Z,71.70
2023-02-22T10:22:51.932Z,71.70
2023-02-22T10:25:24.667Z,71.70
2023-02-22T10:27:57.943Z,71.80
2023-02-22T10:30:33.861Z,71.70
2023-02-22T10:33:11.580Z,71.60
2023-02-22T10:35:41.972Z,71.70
2023-02-22T10:38:17.970Z,71.60
2023-02-22T10:40:54.737Z,71.90
2023-02-22T10:43:25.789Z,72.00
2023-02-22T10:45:56.827Z,71.90
2023-02-22T10:48:27.501Z,72.00
2023-02-22T10:51:02.185Z,71.90
2023-02-22T10:53:31.885Z,72.10
2023-02-22T10:56:15.651Z,72.10
2023-02-22T10:58:50.758Z,72.40
2023-02-22T11:01:27.751Z,72.30
2023-02-22T11:04:01.382Z,72.30
2023-02-22T11:06:30.239Z,72.60
2023-02-22T11:09:14.417Z,72.50
2023-02-22T11:11:46.466Z,72.70
2023-02-22T11:14:25.548Z,72.20
2023-02-22T11:16:56.960Z,71.80
2023-02-22T11:19:28.378Z,71.50
2023-02-22T11:22:10.410Z,71.20
2023-02-22T11:24:49.260Z,71.00
2023-02-22T11:27:29.478Z,71.20
2023-02-22T11:30:07.796Z,70.60
2023-02-22T11:32:36.560Z,70.40
2023-02-22T11:35:32.038Z,70.00
2023-02-22T11:38:13.066Z,69.70
2023-02-22T11:40:41.373Z,69.40
2023-02-22T11:43:16.013Z,69.60
2023-02-22T11:46:02.150Z,69.50
2023-02-22T11:48:34.741Z,69.50
2023-02-22T11:51:21.922Z,69.40
2023-02-22T11:54:13.927Z,69.30
2023-02-22T11:56:45.981Z,69.10
2023-02-22T11:59:26.581Z,69.10
2023-02-22T12:02:00.090Z,68.60
2023-02-22T12:04:55.842Z,68.60
2023-02-22T12:07:51.016Z,68.30
2023-02-22T12:10:35.442Z,68.20
2023-02-22T12:13:19.063Z,67.80
2023-02-22T12:15:56.310Z,67.90
2023-02-22T12:18:32.378Z,67.80
2023-02-22T12:21:02.885Z,67.80
2023-02-22T12:23:40.674Z,67.70
2023-02-22T12:26:13.733Z,67.30
2023-02-22T12:28:47.718Z,67.40
2023-02-22T12:31:23.053Z,67.40
2023-02-22T12:34:01.538Z,67.10
2023-02-22T12:36:37.149Z,66.80
2023-02-22T12:39:19.929Z,66.40
2023-02-22T12:41:52.868Z,66.20
2023-02-22T12:44:26.008Z,66.20
2023-02-22T12:47:00.156Z,66.00
2023-02-22T12:49:35.870Z,66.10
2023-02-22T12:52:21.215Z,65.70
2023-02-22T12:54:57.301Z,65.50
2023-02-22T12:57:36.036Z,65.60
2023-02-22T13:00:10.800Z,65.60
2023-02-22T13:02:44.579Z,65.60
2023-02-22T13:05:17.850Z,65.60
2023-02-22T13:07:57.342Z,65.70
2023-02-22T13:10:36.479Z,65.70
2023-02-22T13:13:15.440Z,65.70
2023-02-22T13:15:50.922Z,65.70
2023-02-22T13:18:26.892Z,65.70
2023-02-22T13:21:02.360Z,65.70
2023-02-22T13:23:42.370Z,65.40
2023-02-22T13:26:20.144Z,65.30
2023-02-22T13:28:57.144Z,65.20
2023-02-22T13:31:46.254Z,65.20
2023-02-22T13:34:31.905Z,64.80
2023-02-22T13:37:26.739Z,64.90
2023-02-22T13:40:19.973Z,64.80
2023-02-22T13:43:20.372Z,64.80
2023-02-22T13:46:08.932Z,64.80
2023-02-22T13:48:59.862Z,64.40
2023-02-22T13:51:51.642Z,64.20
2023-02-22T13:54:27.502Z,64.30
2023-02-22T13:56:58.521Z,64.20
2023-02-22T13:59:31.241Z,64.10
2023-02-22T14:02:04.246Z,64.00
2023-02-22T14:04:41.998Z,64.10
2023-02-22T14:07:48.901Z,64.00
2023-02-22T14:10:52.444Z,63.40
2023-02-22T14:13:22.680Z,63.60
2023-02-22T14:16:19.420Z,63.90
2023-02-22T14:18:50.813Z,64.00
2023-02-22T14:21:23.257Z,63.90
2023-02-22T14:23:53.925Z,63.30
2023-02-22T14:26:27.159Z,63.10
2023-02-22T14:28:59.198Z,62.90
2023-02-22T14:31:36.608Z,62.80
2023-02-22T14:34:13.575Z,62.80
2023-02-22T14:36:47.472Z,62.70
2023-02-22T14:39:24.611Z,62.70
2023-02-22T14:42:01.843Z,62.70
2023-02-22T14:44:35.998Z,62.60
2023-02-22T14:47:08.477Z,62.70
2023-02-22T14:49:42.545Z,62.60
2023-02-22T14:52:22.447Z,62.40
2023-02-22T14:55:04.456Z,62.70
2023-02-22T14:57:39.037Z,62.50
2023-02-22T15:00:20.080Z,63.30
2023-02-22T15:02:49.457Z,62.70
2023-02-22T15:05:20.873Z,62.60
2023-02-22T15:07:54.791Z,62.60
2023-02-22T15:10:31.050Z,62.50
2023-02-22T15:13:11.050Z,62.40
2023-02-22T15:15:43.838Z,62.50
2023-02-22T15:18:25.207Z,62.40
2023-02-22T15:20:57.706Z,62.50
2023-02-22T15:23:30.241Z,62.50
2023-02-22T15:25:59.846Z,62.50
2023-02-22T15:28:31.431Z,62.50
2023-02-22T15:31:19.771Z,62.70
2023-02-22T15:33:48.139Z,62.50
2023-02-22T15:36:17.901Z,62.70
2023-02-22T15:38:50.357Z,62.80
2023-02-22T15:41:28.916Z,62.90
2023-02-22T15:44:17.860Z,62.90
2023-02-22T15:46:52.277Z,63.10
2023-02-22T15:49:23.363Z,63.40
2023-02-22T15:52:03.661Z,63.50
2023-02-22T15:54:38.739Z,63.50
2023-02-22T15:57:09.629Z,63.60
2023-02-22T15:59:45.364Z,63.60
2023-02-22T16:02:37.033Z,63.80
2023-02-22T16:05:08.639Z,63.90
2023-02-22T16:07:41.941Z,63.90
2023-02-22T16:10:25.088Z,63.90
2023-02-22T16:13:14.457Z,64.10
2023-02-22T16:15:57.276Z,64.00
2023-02-22T16:18:28.508Z,64.00
2023-02-22T16:21:01.460Z,64.00
2023-02-22T16:23:30.867Z,64.00
2023-02-22T16:26:08.493Z,64.10
2023-02-22T16:28:38.046Z,64.00
2023-02-22T16:31:06.313Z,64.00
2023-02-22T16:33:34.761Z,64.10
2023-02-22T16:36:08.190Z,64.10
2023-02-22T16:38:38.467Z,64.00
2023-02-22T16:41:08.268Z,64.00
2023-02-22T16:43:37.976Z,64.20
2023-02-22T16:46:07.362Z,64.20
2023-02-22T16:48:38.339Z,64.30
2023-02-22T16:51:17.554Z,64.40
2023-02-22T16:53:46.044Z,64.30
2023-02-22T16:56:17.378Z,64.40
2023-02-22T16:58:49.742Z,64.40
2023-02-22T17:01:18.477Z,64.40
2023-02-22T17:03:47.861Z,65.20
2023-02-22T17:06:16.174Z,64.30
2023-02-22T17:08:45.214Z,64.20
2023-02-22T17:11:14.898Z,64.20
2023-02-22T17:13:44.086Z,64.10
2023-02-22T17:16:16.089Z,64.10
2023-02-22T17:18:46.012Z,64.10
2023-02-22T17:21:16.614Z,64.20
2023-02-22T17:23:45.995Z,64.30
2023-02-22T17:26:15.806Z,64.30
2023-02-22T17:28:44.893Z,64.30
2023-02-22T17:31:21.327Z,64.40
2023-02-22T17:33:51.357Z,64.30
2023-02-22T17:36:20.834Z,64.40
2023-02-22T17:38:49.980Z,64.50
2023-02-22T17:41:18.276Z,64.50
2023-02-22T17:43:46.453Z,64.60
2023-02-22T17:46:16.584Z,64.70
2023-02-22T17:48:44.989Z,64.50
2023-02-22T17:51:13.713Z,64.60
2023-02-22T17:53:42.199Z,64.60
2023-02-22T17:56:13.370Z,64.70
2023-02-22T17:58:42.330Z,64.50
2023-02-22T18:01:22.102Z,64.50
2023-02-22T18:03:50.436Z,64.40
2023-02-22T18:06:23.186Z,64.50
2023-02-22T18:08:55.975Z,64.50
2023-02-22T18:11:26.447Z,64.50
2023-02-22T18:13:55.844Z,64.70
2023-02-22T18:16:26.684Z,64.50
2023-02-22T18:18:55.270Z,64.50
2023-02-22T18:21:23.867Z,64.50
2023-02-22T18:23:52.341Z,64.60
2023-02-22T18:26:22.352Z,64.60
2023-02-22T18:28:50.615Z,64.70
2023-02-22T18:31:20.768Z,64.80
2023-02-22T18:33:51.965Z,64.90
2023-02-22T18:36:23.134Z,65.00
2023-02-22T18:38:53.217Z,65.00
2023-02-22T18:41:25.325Z,65.00
2023-02-22T18:43:55.332Z,65.10
2023-02-22T18:46:25.431Z,65.10
2023-02-22T18:48:56.380Z,65.10
2023-02-22T18:51:25.638Z,65.20
2023-02-22T18:53:59.839Z,65.20
2023-02-22T18:56:30.658Z,65.20
2023-02-22T18:59:01.512Z,65.30
2023-02-22T19:01:30.459Z,65.40
2023-02-22T19:04:01.666Z,65.60
2023-02-22T19:06:29.883Z,65.70
2023-02-22T19:09:01.250Z,65.70
2023-02-22T19:11:29.548Z,65.80
2023-02-22T19:13:59.635Z,65.90
2023-02-22T19:16:28.913Z,66.20
2023-02-22T19:18:59.675Z,66.30
2023-02-22T19:21:40.967Z,66.20
2023-02-22T19:24:09.310Z,66.10
2023-02-22T19:26:39.335Z,66.10
2023-02-22T19:29:08.610Z,66.20
2023-02-22T19:31:36.948Z,66.20
2023-02-22T19:34:10.103Z,66.10
2023-02-22T19:36:39.705Z,66.10
2023-02-22T19:39:08.214Z,66.10
2023-02-22T19:41:36.409Z,66.00
2023-02-22T19:44:05.031Z,66.00
2023-02-22T19:46:33.280Z,66.00
2023-02-22T19:49:02.807Z,66.10
2023-02-22T19:51:33.486Z,66.10
2023-02-22T19:54:03.561Z,66.20
2023-02-22T19:56:34.936Z,66.20
2023-02-22T19:59:10.898Z,66.20
2023-02-22T20:01:39.231Z,66.20
2023-02-22T20:04:09.136Z,66.10
2023-02-22T20:06:41.609Z,65.90
2023-02-22T20:09:12.195Z,65.90
2023-02-22T20:11:40.796Z,65.90
2023-02-22T20:14:08.984Z,65.80
2023-02-22T20:16:37.150Z,65.80
2023-02-22T20:19:06.509Z,65.90
2023-02-22T20:21:36.451Z,66.00
2023-02-22T20:24:08.488Z,66.10
2023-02-22T20:26:38.576Z,66.30
2023-02-22T20:29:08.011Z,66.40
2023-02-22T20:31:37.334Z,66.50
2023-02-22T20:34:07.161Z,66.50
2023-02-22T20:36:38.377Z,66.60
2023-02-22T20:39:13.287Z,66.80
2023-02-22T20:41:43.476Z,66.90
2023-02-22T20:44:14.114Z,66.90
2023-02-22T20:46:42.831Z,66.90
2023-02-22T20:49:13.825Z,66.90
2023-02-22T20:51:44.691Z,66.90
2023-02-22T20:54:14.844Z,66.90
2023-02-22T20:56:45.207Z,66.90
2023-02-22T20:59:15.350Z,66.90
2023-02-22T21:01:43.626Z,66.90
2023-02-22T21:04:13.612Z,66.80
2023-02-22T21:06:43.046Z,66.80
2023-02-22T21:09:16.551Z,66.70
2023-02-22T21:11:45.627Z,66.90
2023-02-22T21:14:18.542Z,66.80
2023-02-22T21:16:48.360Z,66.80
2023-02-22T21:19:28.116Z,67.40
2023-02-22T21:21:56.900Z,66.60
2023-02-22T21:24:28.353Z,66.60
2023-02-22T21:26:58.957Z,66.60
2023-02-22T21:29:27.647Z,66.70
2023-02-22T21:31:56.212Z,66.90
2023-02-22T21:34:25.830Z,66.80
2023-02-22T21:36:54.370Z,66.90
2023-02-22T21:39:27.743Z,66.90
2023-02-22T21:42:00.606Z,67.00
2023-02-22T21:44:30.090Z,67.00
2023-02-22T21:46:58.421Z,66.90
2023-02-22T21:49:26.600Z,66.90
2023-02-22T21:51:54.895Z,67.00
2023-02-22T21:54:23.430Z,67.00
2023-02-22T21:56:52.515Z,67.20
2023-02-22T21:59:23.887Z,67.40
2023-02-22T22:01:55.773Z,67.50
2023-02-22T22:04:27.530Z,67.40
2023-02-22T22:06:57.761Z,67.50
2023-02-22T22:09:29.100Z,67.50
2023-02-22T22:11:59.387Z,67.50
2023-02-22T22:14:29.315Z,67.50
2023-02-22T22:16:59.450Z,67.50
2023-02-22T22:19:29.172Z,67.70
2023-02-22T22:21:57.973Z,67.60
2023-02-22T22:24:28.665Z,67.80
2023-02-22T22:26:57.124Z,67.90
2023-02-22T22:29:28.530Z,67.90
2023-02-22T22:31:58.261Z,68.20
2023-02-22T22:34:29.510Z,68.30
2023-02-22T22:36:58.726Z,68.40
2023-02-22T22:39:27.581Z,68.60
2023-02-22T22:41:55.976Z,68.70
2023-02-22T22:44:24.352Z,68.80
2023-02-22T22:46:54.754Z,68.90
2023-02-22T22:49:25.558Z,68.90
2023-02-22T22:51:54.509Z,68.90
2023-02-22T22:54:22.646Z,68.90
2023-02-22T22:56:51.135Z,69.00
2023-02-22T22:59:19.287Z,69.10
2023-02-22T23:01:47.437Z,69.10
2023-02-22T23:04:17.351Z,69.10
2023-02-22T23:06:49.899Z,69.10
2023-02-22T23:09:21.681Z,69.10
2023-02-22T23:11:53.336Z,69.10
2023-02-22T23:14:24.114Z,68.90
2023-02-22T23:16:56.529Z,68.90
2023-02-22T23:19:24.713Z,68.80
2023-02-22T23:21:55.981Z,68.80
2023-02-22T23:24:27.248Z,68.80
2023-02-22T23:26:59.874Z,68.80
2023-02-22T23:29:29.886Z,69.00
2023-02-22T23:31:58.768Z,69.10
2023-02-22T23:34:29.008Z,69.30
2023-02-22T23:36:58.682Z,69.40
2023-02-22T23:39:27.312Z,69.50
2023-02-22T23:41:59.178Z,69.60
2023-02-22T23:44:27.367Z,69.60
2023-02-22T23:46:56.189Z,69.60
2023-02-22T23:49:26.616Z,69.40
2023-02-22T23:51:55.620Z,69.40
2023-02-22T23:54:25.382Z,69.30
2023-02-22T23:56:56.831Z,70.10
2023-02-22T23:59:26.251Z,69.40
